Time;durP1;ratioP1;P1;durP2;ratioP2;P2;SDS_P1;SDS_P2;PMS_P1;PMS_P2;Temp;Humidity;BMP_temperature;BMP_pressure;BME280_temperature;BME280_humidity;BME280_pressure;Samples;Min_cycle;Max_cycle;Signal;HPM_P1;HPM_P2
2022/04/24 00:02:02;;;;;;;10.75;8.30;;;10.70;85.80;;;;;;5000381;28;20485;-44
2022/04/24 00:04:29;;;;;;;11.38;7.88;;;10.70;86.10;;;;;;5008045;28;20058;-43
2022/04/24 00:06:55;;;;;;;10.88;7.88;;;10.60;86.20;;;;;;5005029;28;20041;-43
2022/04/24 00:09:22;;;;;;;11.02;7.93;;;10.60;86.60;;;;;;5003796;28;20074;-43
2022/04/24 00:11:50;;;;;;;13.32;7.72;;;10.60;86.70;;;;;;5000525;28;20050;-43
2022/04/24 00:14:17;;;;;;;12.38;7.75;;;10.60;87.10;;;;;;5008543;28;20050;-44
2022/04/24 00:16:44;;;;;;;12.38;7.40;;;10.50;87.10;;;;;;5005565;28;20489;-42
2022/04/24 00:19:11;;;;;;;8.98;7.18;;;10.50;87.90;;;;;;5006434;28;20052;-43
2022/04/24 00:21:38;;;;;;;11.13;7.75;;;10.50;88.20;;;;;;5005550;28;20048;-44
2022/04/24 00:24:05;;;;;;;10.52;7.75;;;10.40;88.50;;;;;;4995107;28;20121;-44
2022/04/24 00:26:32;;;;;;;11.52;7.25;;;10.40;88.90;;;;;;5011898;28;20049;-43
2022/04/24 00:29:00;;;;;;;10.88;7.50;;;10.30;89.10;;;;;;5007526;28;20050;-43
2022/04/24 00:31:27;;;;;;;13.77;7.32;;;10.30;89.10;;;;;;5010242;28;20062;-43
2022/04/24 00:33:53;;;;;;;10.43;7.82;;;10.30;89.30;;;;;;5003273;28;20050;-43
2022/04/24 00:36:20;;;;;;;10.77;7.18;;;10.30;89.60;;;;;;5019773;28;20100;-43
2022/04/24 00:38:47;;;;;;;11.43;7.93;;;10.20;90.00;;;;;;5006136;28;20035;-44
2022/04/24 00:41:13;;;;;;;8.90;7.38;;;10.20;90.10;;;;;;5013503;28;20389;-43
2022/04/24 00:43:40;;;;;;;10.55;7.28;;;10.20;90.10;;;;;;5013755;28;20056;-43
2022/04/24 00:46:12;;;;;;;9.85;7.20;;;10.20;90.20;;;;;;5009478;28;20046;-43
2022/04/24 00:48:40;;;;;;;11.73;8.35;;;10.10;90.40;;;;;;5003194;28;20037;-43
2022/04/24 00:51:07;;;;;;;10.75;7.85;;;10.10;90.30;;;;;;5013923;28;20045;-43
2022/04/24 00:53:34;;;;;;;12.48;7.70;;;10.10;90.50;;;;;;5015524;28;20406;-43
2022/04/24 00:56:01;;;;;;;8.82;6.70;;;10.10;90.70;;;;;;5012208;28;20092;-43
2022/04/24 00:58:27;;;;;;;15.75;7.90;;;10.10;90.80;;;;;;5012844;28;20052;-42
2022/04/24 01:00:54;;;;;;;11.70;7.05;;;10.10;90.70;;;;;;5011714;28;20470;-43
2022/04/24 01:03:22;;;;;;;12.88;7.85;;;10.10;90.70;;;;;;5009627;28;20038;-43
2022/04/24 01:05:49;;;;;;;9.07;7.35;;;10.00;91.00;;;;;;5010331;28;20050;-43
2022/04/24 01:08:15;;;;;;;11.80;7.30;;;10.00;91.00;;;;;;5011386;28;20050;-43
2022/04/24 01:10:42;;;;;;;11.60;7.30;;;10.00;91.10;;;;;;5012147;28;20050;-43
2022/04/24 01:13:10;;;;;;;10.65;7.80;;;9.90;91.40;;;;;;5012383;28;20056;-43
2022/04/24 01:15:36;;;;;;;13.48;7.45;;;9.90;91.30;;;;;;5014074;28;20445;-43
2022/04/24 01:18:03;;;;;;;12.25;7.47;;;9.90;91.20;;;;;;5012043;28;20045;-43
2022/04/24 01:20:31;;;;;;;10.95;7.82;;;9.90;91.10;;;;;;5005126;28;20482;-43
2022/04/24 01:22:58;;;;;;;17.33;8.15;;;9.90;91.40;;;;;;4998202;28;20054;-44
2022/04/24 01:25:24;;;;;;;8.75;7.07;;;9.90;91.50;;;;;;5001286;28;20053;-43
2022/04/24 01:27:51;;;;;;;9.82;7.70;;;9.80;91.70;;;;;;5011063;28;20053;-43
2022/04/24 01:30:18;;;;;;;9.70;7.78;;;9.80;91.40;;;;;;5009342;28;20141;-43
2022/04/24 01:32:44;;;;;;;11.27;8.02;;;9.80;91.50;;;;;;5007480;28;20053;-43
2022/04/24 01:35:13;;;;;;;12.35;7.43;;;9.80;91.50;;;;;;5012330;28;20052;-44
2022/04/24 01:37:44;;;;;;;10.30;7.65;;;9.70;91.60;;;;;;5009272;28;20065;-43
2022/04/24 01:40:11;;;;;;;13.20;7.47;;;9.70;91.70;;;;;;5004403;28;20042;-43
2022/04/24 01:42:37;;;;;;;10.15;7.53;;;9.70;91.80;;;;;;5013473;28;20100;-43
2022/04/24 01:45:05;;;;;;;10.20;7.45;;;9.60;91.80;;;;;;5015050;28;20042;-43
2022/04/24 01:47:32;;;;;;;10.20;7.30;;;9.60;92.00;;;;;;5005204;28;20045;-43
2022/04/24 01:49:58;;;;;;;8.90;7.43;;;9.50;92.00;;;;;;5014474;28;20041;-43
2022/04/24 01:52:25;;;;;;;11.68;7.40;;;9.50;92.00;;;;;;5012016;28;20053;-43
2022/04/24 01:54:53;;;;;;;8.40;6.82;;;9.50;92.10;;;;;;5010209;28;20380;-43
2022/04/24 01:57:20;;;;;;;9.23;7.50;;;9.50;92.10;;;;;;5012556;28;20048;-43
2022/04/24 01:59:47;;;;;;;12.05;7.40;;;9.40;92.10;;;;;;5000247;28;20049;-43
2022/04/24 02:02:13;;;;;;;12.30;8.02;;;9.40;92.20;;;;;;5006550;28;20053;-43
2022/04/24 02:04:40;;;;;;;14.05;8.57;;;9.30;92.50;;;;;;5008418;28;20398;-44
2022/04/24 02:07:07;;;;;;;9.75;7.20;;;9.30;92.50;;;;;;5013312;28;20052;-43
2022/04/24 02:09:35;;;;;;;13.50;7.40;;;9.30;92.40;;;;;;5001466;28;20054;-43
2022/04/24 02:12:03;;;;;;;10.45;7.65;;;9.20;92.30;;;;;;5012794;28;20050;-43
2022/04/24 02:14:30;;;;;;;13.38;8.60;;;9.20;92.40;;;;;;5011584;28;20050;-44
2022/04/24 02:16:57;;;;;;;10.55;8.05;;;9.20;92.50;;;;;;5008253;28;20052;-42
2022/04/24 02:19:24;;;;;;;9.52;7.28;;;9.10;92.60;;;;;;5010630;28;20458;-42
2022/04/24 02:21:50;;;;;;;9.95;7.75;;;9.10;92.90;;;;;;4998486;28;20041;-42
2022/04/24 02:24:17;;;;;;;14.13;8.52;;;9.00;92.80;;;;;;5004001;28;20402;-42
2022/04/24 02:26:44;;;;;;;8.65;7.22;;;9.00;93.10;;;;;;5010664;28;20067;-45
2022/04/24 02:29:12;;;;;;;13.32;7.93;;;8.90;93.00;;;;;;5000787;28;20072;-44
2022/04/24 02:31:38;;;;;;;11.65;8.38;;;8.90;93.30;;;;;;5006205;28;20065;-44
2022/04/24 02:34:05;;;;;;;11.77;7.85;;;8.80;93.30;;;;;;5000443;28;20045;-43
2022/04/24 02:36:32;;;;;;;11.80;8.27;;;8.80;93.30;;;;;;5004112;28;20050;-43
2022/04/24 02:38:58;;;;;;;13.57;8.75;;;8.70;93.40;;;;;;5005178;28;20509;-43
2022/04/24 02:41:26;;;;;;;11.90;8.25;;;8.70;93.60;;;;;;5013983;28;20046;-43
2022/04/24 02:43:53;;;;;;;11.18;8.63;;;8.70;94.00;;;;;;5011712;28;20049;-43
2022/04/24 02:46:21;;;;;;;12.02;8.77;;;8.70;93.80;;;;;;5006698;28;20141;-44
2022/04/24 02:48:51;;;;;;;10.73;7.63;;;8.60;93.90;;;;;;5011229;28;20041;-43
2022/04/24 02:51:18;;;;;;;11.48;9.13;;;8.60;94.10;;;;;;5004779;28;20078;-43
2022/04/24 02:53:44;;;;;;;12.85;8.70;;;8.50;94.30;;;;;;5016516;28;21021;-43
2022/04/24 02:56:11;;;;;;;9.73;7.88;;;8.50;94.20;;;;;;5011354;28;20042;-43
2022/04/24 02:58:39;;;;;;;10.27;8.40;;;8.40;94.20;;;;;;5002898;28;20049;-43
2022/04/24 03:01:05;;;;;;;12.55;8.90;;;8.40;94.30;;;;;;5003482;28;20130;-43
2022/04/24 03:03:33;;;;;;;11.43;8.30;;;8.30;94.60;;;;;;5004253;28;20054;-44
2022/04/24 03:06:00;;;;;;;11.27;8.20;;;8.30;94.50;;;;;;5008829;28;20042;-43
2022/04/24 03:08:28;;;;;;;13.90;8.23;;;8.20;94.70;;;;;;5005746;28;20052;-44
2022/04/24 03:10:54;;;;;;;11.77;8.43;;;8.20;94.80;;;;;;5011201;28;20045;-43
2022/04/24 03:13:21;;;;;;;12.05;8.82;;;8.20;94.60;;;;;;5005034;28;20397;-42
2022/04/24 03:15:48;;;;;;;13.48;8.93;;;8.20;94.80;;;;;;5012665;28;20049;-43
2022/04/24 03:18:15;;;;;;;12.25;8.90;;;8.10;94.90;;;;;;5005269;28;20042;-43
2022/04/24 03:20:44;;;;;;;13.07;8.00;;;8.10;95.00;;;;;;5009458;28;20068;-43
2022/04/24 03:23:11;;;;;;;11.32;8.40;;;8.00;94.90;;;;;;5007300;28;20393;-43
2022/04/24 03:25:37;;;;;;;10.05;8.38;;;8.00;95.00;;;;;;5008053;28;20070;-43
2022/04/24 03:28:06;;;;;;;12.20;8.95;;;8.00;95.10;;;;;;5003497;28;20049;-43
2022/04/24 03:30:33;;;;;;;12.10;8.30;;;8.00;95.00;;;;;;5009243;28;20053;-43
2022/04/24 03:33:00;;;;;;;12.15;8.15;;;8.00;95.10;;;;;;5005324;28;20046;-44
2022/04/24 03:35:26;;;;;;;11.85;8.35;;;7.90;95.10;;;;;;5007598;28;20054;-43
2022/04/24 03:37:54;;;;;;;10.02;8.60;;;7.90;95.10;;;;;;5011292;28;20363;-43
2022/04/24 03:40:21;;;;;;;9.60;8.27;;;7.90;95.10;;;;;;5003500;28;20045;-43
2022/04/24 03:42:48;;;;;;;13.02;8.88;;;7.90;95.30;;;;;;5013025;28;20041;-43
2022/04/24 03:45:15;;;;;;;14.30;8.38;;;7.90;95.40;;;;;;5010701;28;20477;-43
2022/04/24 03:47:41;;;;;;;11.98;7.97;;;7.80;95.30;;;;;;5008949;28;20409;-43
2022/04/24 03:50:08;;;;;;;12.45;8.65;;;7.80;95.20;;;;;;5002245;28;20046;-43
2022/04/24 03:52:35;;;;;;;11.35;8.32;;;7.80;95.30;;;;;;5006951;28;20364;-44
2022/04/24 03:55:04;;;;;;;10.93;8.77;;;7.80;95.30;;;;;;4998629;28;20089;-43
2022/04/24 03:57:31;;;;;;;13.98;8.32;;;7.80;95.30;;;;;;5004962;28;20490;-43
2022/04/24 03:59:57;;;;;;;11.85;8.10;;;7.80;95.50;;;;;;5007500;28;20052;-43
2022/04/24 04:02:24;;;;;;;11.45;7.97;;;7.70;95.70;;;;;;5003101;28;20049;-43
2022/04/24 04:04:51;;;;;;;12.20;8.88;;;7.70;95.50;;;;;;5011272;28;20037;-44
2022/04/24 04:07:17;;;;;;;11.55;8.50;;;7.70;95.60;;;;;;5009886;28;20430;-43
2022/04/24 04:09:44;;;;;;;13.73;9.35;;;7.70;95.70;;;;;;5010179;28;20069;-43
2022/04/24 04:12:12;;;;;;;13.57;9.45;;;7.60;95.90;;;;;;5011429;28;20042;-43
2022/04/24 04:14:39;;;;;;;11.82;9.02;;;7.60;95.90;;;;;;5001986;28;20049;-43
2022/04/24 04:17:06;;;;;;;12.35;8.35;;;7.60;96.00;;;;;;4997566;28;20045;-43
2022/04/24 04:19:32;;;;;;;11.68;8.80;;;7.60;96.10;;;;;;5001399;28;20049;-43
2022/04/24 04:21:59;;;;;;;13.73;9.10;;;7.60;96.10;;;;;;5010669;28;20056;-43
2022/04/24 04:24:26;;;;;;;11.07;9.15;;;7.60;96.30;;;;;;5011077;28;20045;-43
2022/04/24 04:26:53;;;;;;;14.23;8.93;;;7.50;96.40;;;;;;5008072;28;20385;-43
2022/04/24 04:29:21;;;;;;;12.40;9.20;;;7.50;96.40;;;;;;5003715;28;20077;-43
2022/04/24 04:31:48;;;;;;;13.52;8.90;;;7.50;96.50;;;;;;5009913;28;20058;-43
2022/04/24 04:34:14;;;;;;;11.18;8.65;;;7.50;96.50;;;;;;5004984;28;20129;-43
2022/04/24 04:36:41;;;;;;;13.70;8.70;;;7.50;96.60;;;;;;5001885;28;20038;-43
2022/04/24 04:39:08;;;;;;;14.00;8.68;;;7.40;96.60;;;;;;4998392;28;20054;-43
2022/04/24 04:41:34;;;;;;;10.90;8.75;;;7.40;96.60;;;;;;4997143;28;20048;-43
2022/04/24 04:44:01;;;;;;;13.98;9.65;;;7.40;96.80;;;;;;5001563;28;20042;-44
2022/04/24 04:46:29;;;;;;;12.07;9.40;;;7.40;96.80;;;;;;4996816;28;20469;-43
2022/04/24 04:48:56;;;;;;;13.63;9.43;;;7.40;97.10;;;;;;4994968;28;20046;-43
2022/04/24 04:51:23;;;;;;;11.68;8.35;;;7.40;97.10;;;;;;5008024;28;20052;-43
2022/04/24 04:53:51;;;;;;;13.80;9.55;;;7.40;97.10;;;;;;5003251;28;20055;-43
2022/04/24 04:56:18;;;;;;;13.93;8.82;;;7.40;97.20;;;;;;5010688;28;20128;-44
2022/04/24 04:58:45;;;;;;;12.18;9.15;;;7.40;97.20;;;;;;5004875;28;20042;-44
2022/04/24 05:01:11;;;;;;;12.75;9.80;;;7.40;97.20;;;;;;4996567;28;20050;-43
2022/04/24 05:03:39;;;;;;;12.95;8.93;;;7.50;97.40;;;;;;5008179;28;20061;-43
2022/04/24 05:06:06;;;;;;;11.20;8.80;;;7.50;97.30;;;;;;4998823;28;20057;-43
2022/04/24 05:08:33;;;;;;;11.50;8.60;;;7.50;97.50;;;;;;5006992;28;20053;-43
2022/04/24 05:11:01;;;;;;;15.02;8.52;;;7.50;97.60;;;;;;5002969;28;20046;-43
2022/04/24 05:13:28;;;;;;;14.10;9.20;;;7.50;97.40;;;;;;5007188;28;20053;-43
2022/04/24 05:15:54;;;;;;;12.90;8.63;;;7.60;97.70;;;;;;5008866;28;20064;-43
2022/04/24 05:18:21;;;;;;;12.95;8.70;;;7.60;97.60;;;;;;5006901;28;20042;-43
2022/04/24 05:20:50;;;;;;;13.23;8.35;;;7.70;97.70;;;;;;5013654;28;20463;-43
2022/04/24 05:23:16;;;;;;;13.75;8.55;;;7.70;97.50;;;;;;5012905;28;20041;-43
2022/04/24 05:25:43;;;;;;;14.57;8.32;;;7.70;97.50;;;;;;5013759;28;20406;-43
2022/04/24 05:28:10;;;;;;;13.35;8.32;;;7.70;97.40;;;;;;5009323;28;20124;-43
2022/04/24 05:30:36;;;;;;;11.25;8.27;;;7.80;97.40;;;;;;5018112;28;20129;-43
2022/04/24 05:33:04;;;;;;;11.77;7.47;;;7.80;97.50;;;;;;5004853;28;20057;-43
2022/04/24 05:35:31;;;;;;;15.90;8.80;;;7.90;97.40;;;;;;5007643;28;20042;-43
2022/04/24 05:37:59;;;;;;;10.20;7.90;;;8.00;97.50;;;;;;5009106;28;20044;-43
2022/04/24 05:40:25;;;;;;;12.10;9.23;;;8.00;97.40;;;;;;5007883;28;20654;-43
2022/04/24 05:42:53;;;;;;;14.98;8.45;;;8.00;97.40;;;;;;5012027;28;20050;-44
2022/04/24 05:45:22;;;;;;;12.10;8.75;;;8.10;97.40;;;;;;5014286;28;20387;-43
2022/04/24 05:47:49;;;;;;;12.38;8.23;;;8.10;97.40;;;;;;5012256;28;20104;-43
2022/04/24 05:50:15;;;;;;;10.90;7.75;;;8.20;97.30;;;;;;5004969;28;20125;-43
2022/04/24 05:52:43;;;;;;;18.17;8.70;;;8.20;97.40;;;;;;5010659;28;20045;-44
2022/04/24 05:55:11;;;;;;;8.90;7.78;;;8.20;97.40;;;;;;5000053;28;20053;-43
2022/04/24 05:57:38;;;;;;;16.17;8.77;;;8.20;97.40;;;;;;5009322;28;20044;-43
2022/04/24 06:00:05;;;;;;;14.50;9.00;;;8.30;97.40;;;;;;5011430;28;20049;-43
2022/04/24 06:02:32;;;;;;;12.40;8.35;;;8.30;97.50;;;;;;5007232;28;20056;-44
2022/04/24 06:04:59;;;;;;;12.77;8.52;;;8.40;97.40;;;;;;5001535;28;20049;-43
2022/04/24 06:07:25;;;;;;;13.50;8.10;;;8.40;97.40;;;;;;5002132;28;20042;-43
2022/04/24 06:09:52;;;;;;;13.75;8.25;;;8.50;97.30;;;;;;5014880;28;20045;-43
2022/04/24 06:12:20;;;;;;;11.45;8.10;;;8.60;97.30;;;;;;5003495;28;20056;-43
2022/04/24 06:14:47;;;;;;;11.32;8.52;;;8.60;97.20;;;;;;5011338;28;20042;-43
2022/04/24 06:17:13;;;;;;;13.80;8.82;;;8.70;97.10;;;;;;5006832;28;20121;-44
2022/04/24 06:19:40;;;;;;;12.63;8.35;;;8.70;97.00;;;;;;5005393;28;20042;-43
2022/04/24 06:22:07;;;;;;;13.93;8.73;;;8.70;97.10;;;;;;5010146;28;20052;-43
2022/04/24 06:24:33;;;;;;;12.70;9.32;;;8.70;97.20;;;;;;5007253;28;20050;-43
2022/04/24 06:27:00;;;;;;;13.20;8.68;;;8.70;97.20;;;;;;5009407;28;20046;-43
2022/04/24 06:29:28;;;;;;;11.32;8.43;;;8.80;97.30;;;;;;5010947;28;20046;-43
2022/04/24 06:31:55;;;;;;;12.65;8.38;;;8.80;97.40;;;;;;5011527;28;20045;-43
2022/04/24 06:34:21;;;;;;;13.77;9.40;;;8.80;97.30;;;;;;5005353;28;20046;-43
2022/04/24 06:36:48;;;;;;;13.50;9.05;;;8.80;97.40;;;;;;5002431;28;20490;-44
2022/04/24 06:39:15;;;;;;;12.55;8.65;;;8.90;97.30;;;;;;5007471;28;20042;-43
2022/04/24 06:41:42;;;;;;;11.68;8.52;;;9.00;97.10;;;;;;5009858;28;20054;-43
2022/04/24 06:44:08;;;;;;;13.27;8.75;;;9.00;97.00;;;;;;5012825;28;20461;-44
2022/04/24 06:46:36;;;;;;;12.85;8.35;;;9.10;96.90;;;;;;5009986;28;20156;-43
2022/04/24 06:49:03;;;;;;;13.82;8.57;;;9.30;96.70;;;;;;5007114;28;20460;-44
2022/04/24 06:51:30;;;;;;;13.45;8.60;;;9.40;96.60;;;;;;5010580;28;20050;-43
2022/04/24 06:53:56;;;;;;;15.80;7.70;;;9.60;96.50;;;;;;5002966;28;20475;-43
2022/04/24 06:56:23;;;;;;;11.85;7.97;;;9.70;96.30;;;;;;4997625;28;20056;-43
2022/04/24 06:58:51;;;;;;;14.20;7.65;;;9.90;96.00;;;;;;5002471;28;20046;-43
2022/04/24 07:01:19;;;;;;;9.95;7.53;;;10.10;95.40;;;;;;5006425;28;20045;-43
2022/04/24 07:03:47;;;;;;;13.60;8.27;;;10.20;94.80;;;;;;5016444;28;20076;-43
2022/04/24 07:06:14;;;;;;;15.30;7.57;;;10.30;94.60;;;;;;4998578;28;20055;-43
2022/04/24 07:08:41;;;;;;;9.20;6.97;;;10.40;94.20;;;;;;5012576;28;20050;-43
2022/04/24 07:11:07;;;;;;;9.05;7.00;;;10.50;93.90;;;;;;5012496;28;20052;-43
2022/04/24 07:13:36;;;;;;;11.18;7.40;;;10.60;93.70;;;;;;5011161;28;20042;-43
2022/04/24 07:16:03;;;;;;;9.07;6.47;;;10.70;93.50;;;;;;5003417;28;20039;-43
2022/04/24 07:18:30;;;;;;;12.10;6.78;;;10.80;93.30;;;;;;4999328;28;20042;-40
2022/04/24 07:20:58;;;;;;;19.45;8.07;;;11.00;93.00;;;;;;4999888;28;20132;-42
2022/04/24 07:23:25;;;;;;;13.70;7.13;;;11.10;92.80;;;;;;4997706;28;20082;-41
2022/04/24 07:25:52;;;;;;;11.60;7.03;;;11.20;92.60;;;;;;5008783;28;20046;-38
2022/04/24 07:28:19;;;;;;;12.60;7.20;;;11.30;92.40;;;;;;5011460;28;20090;-39
2022/04/24 07:30:46;;;;;;;8.32;6.40;;;11.40;92.10;;;;;;5005695;28;20046;-40
2022/04/24 07:33:13;;;;;;;12.13;6.82;;;11.50;91.90;;;;;;5005994;28;20088;-39
2022/04/24 07:35:40;;;;;;;10.80;6.80;;;11.60;91.50;;;;;;5006948;28;20048;-40
2022/04/24 07:38:08;;;;;;;11.68;6.75;;;11.70;91.80;;;;;;5004348;28;20042;-41
2022/04/24 07:40:36;;;;;;;12.15;6.85;;;11.80;91.30;;;;;;5002301;28;20492;-40
2022/04/24 07:43:04;;;;;;;10.85;6.82;;;11.90;91.20;;;;;;4994380;28;20048;-41
2022/04/24 07:45:31;;;;;;;8.38;5.38;;;12.10;91.20;;;;;;4997712;28;20054;-41
2022/04/24 07:47:58;;;;;;;8.68;6.22;;;12.20;90.60;;;;;;5005318;28;20069;-41
2022/04/24 07:50:26;;;;;;;8.07;5.18;;;12.30;90.80;;;;;;5005333;28;20474;-42
2022/04/24 07:52:52;;;;;;;8.93;5.55;;;12.40;90.40;;;;;;5010950;28;20049;-42
2022/04/24 07:55:22;;;;;;;8.73;5.25;;;12.50;90.20;;;;;;5002777;28;20125;-40
2022/04/24 07:57:49;;;;;;;7.03;4.75;;;12.50;90.00;;;;;;4993448;28;20042;-41
2022/04/24 08:00:17;;;;;;;8.40;5.35;;;12.70;89.50;;;;;;5008115;28;20049;-41
2022/04/24 08:02:47;;;;;;;7.30;4.63;;;12.80;88.90;;;;;;5003358;28;20575;-39
2022/04/24 08:05:19;;;;;;;8.32;4.85;;;12.90;89.00;;;;;;5003741;28;20042;-42
2022/04/24 08:07:46;;;;;;;11.80;4.93;;;13.00;86.70;;;;;;5009309;28;20497;-41
2022/04/24 08:10:13;;;;;;;10.27;4.72;;;13.00;87.20;;;;;;5007523;28;20052;-42
2022/04/24 08:12:41;;;;;;;8.52;5.25;;;13.00;87.50;;;;;;5004067;28;20056;-40
2022/04/24 08:15:08;;;;;;;10.80;4.40;;;13.20;86.70;;;;;;5012898;28;20381;-40
2022/04/24 08:17:35;;;;;;;8.73;4.13;;;13.30;86.80;;;;;;5011005;28;20389;-42
2022/04/24 08:20:02;;;;;;;9.52;4.50;;;13.40;85.70;;;;;;5018867;28;20049;-42
2022/04/24 08:22:37;;;;;;;11.23;3.75;;;13.50;84.00;;;;;;5009179;28;20046;-42
2022/04/24 08:25:04;;;;;;;8.52;3.67;;;13.50;83.60;;;;;;5012209;28;20048;-42
2022/04/24 08:27:31;;;;;;;6.78;4.00;;;13.70;83.80;;;;;;5006469;28;20046;-41
2022/04/24 08:29:59;;;;;;;6.78;3.55;;;13.90;83.40;;;;;;5003894;28;20049;-43
2022/04/24 08:32:25;;;;;;;4.80;3.15;;;14.10;81.70;;;;;;5003430;28;20051;-42
2022/04/24 08:34:52;;;;;;;4.95;3.03;;;14.20;80.40;;;;;;5006416;28;20065;-44
2022/04/24 08:37:19;;;;;;;4.93;3.13;;;14.30;80.10;;;;;;5006053;28;20546;-42
2022/04/24 08:39:45;;;;;;;6.28;2.95;;;14.50;80.20;;;;;;5010859;28;20381;-42
2022/04/24 08:42:13;;;;;;;6.85;2.80;;;14.80;79.30;;;;;;5006313;28;20038;-42
2022/04/24 08:44:40;;;;;;;4.85;2.90;;;15.00;77.50;;;;;;5001014;28;20107;-42
2022/04/24 08:47:08;;;;;;;4.50;2.40;;;15.10;75.40;;;;;;5009762;28;20471;-43
2022/04/24 08:49:34;;;;;;;6.03;2.65;;;15.10;74.40;;;;;;5009834;28;20470;-40
2022/04/24 08:52:01;;;;;;;5.78;2.72;;;15.30;73.70;;;;;;5021486;28;20417;-42
2022/04/24 08:54:28;;;;;;;8.27;2.60;;;15.40;73.50;;;;;;5014054;28;20401;-42
2022/04/24 08:56:56;;;;;;;4.82;2.67;;;15.60;72.40;;;;;;5012739;28;20042;-42
2022/04/24 08:59:23;;;;;;;3.90;2.40;;;15.70;71.80;;;;;;5013580;28;20056;-43
2022/04/24 09:01:50;;;;;;;3.97;2.13;;;15.80;69.60;;;;;;5021383;28;20052;-42
2022/04/24 09:04:18;;;;;;;4.93;2.58;;;15.70;68.80;;;;;;5012328;28;20486;-43
2022/04/24 09:06:55;;;;;;;7.63;2.45;;;15.90;69.30;;;;;;5013539;28;20046;-40
2022/04/24 09:09:22;;;;;;;6.32;2.45;;;16.10;67.30;;;;;;5007735;28;20048;-42
2022/04/24 09:11:48;;;;;;;3.45;2.25;;;16.20;67.30;;;;;;5008228;28;20370;-43
2022/04/24 09:14:19;;;;;;;8.98;2.58;;;16.20;66.80;;;;;;5018093;28;20057;-43
2022/04/24 09:16:48;;;;;;;4.55;2.95;;;16.30;66.90;;;;;;5017461;28;20046;-42
2022/04/24 09:19:20;;;;;;;3.88;3.00;;;16.40;66.70;;;;;;5007885;28;20041;-42
2022/04/24 09:21:47;;;;;;;7.53;3.00;;;16.50;66.10;;;;;;5012280;28;20058;-42
2022/04/24 09:24:14;;;;;;;6.25;2.47;;;16.50;66.50;;;;;;5012598;28;20064;-42
2022/04/24 09:26:50;;;;;;;4.50;2.90;;;16.50;66.30;;;;;;5010929;28;20034;-43
2022/04/24 09:29:17;;;;;;;6.35;3.17;;;16.60;65.20;;;;;;5008824;28;20042;-43
2022/04/24 09:31:47;;;;;;;6.57;2.90;;;16.60;65.80;;;;;;5010328;28;20046;-41
2022/04/24 09:34:14;;;;;;;5.87;3.13;;;16.70;65.70;;;;;;5006544;28;20057;-43
2022/04/24 09:36:42;;;;;;;7.82;3.38;;;16.80;65.30;;;;;;5004532;28;20125;-43
2022/04/24 09:39:09;;;;;;;5.13;2.90;;;16.80;64.10;;;;;;5012747;28;20453;-41
2022/04/24 09:41:36;;;;;;;4.82;2.70;;;16.70;64.20;;;;;;5015126;28;20042;-43
2022/04/24 09:44:12;;;;;;;7.78;3.00;;;16.70;64.60;;;;;;5003456;28;20058;-43
2022/04/24 09:46:38;;;;;;;5.20;3.05;;;16.80;63.60;;;;;;5006684;28;20061;-41
2022/04/24 09:49:05;;;;;;;6.40;3.17;;;16.80;64.30;;;;;;5013671;28;20050;-43
2022/04/24 09:51:32;;;;;;;7.15;3.20;;;16.80;63.70;;;;;;5007871;28;20068;-43
2022/04/24 09:54:01;;;;;;;5.45;3.13;;;16.90;63.20;;;;;;5008192;28;20056;-42
2022/04/24 09:56:28;;;;;;;5.85;3.33;;;17.00;62.70;;;;;;5006140;28;20482;-43
2022/04/24 09:58:55;;;;;;;5.90;2.72;;;17.10;62.60;;;;;;5007879;28;20053;-42
2022/04/24 10:01:22;;;;;;;8.18;2.90;;;17.20;61.40;;;;;;5011623;28;20057;-43
2022/04/24 10:03:49;;;;;;;6.72;3.35;;;17.20;61.20;;;;;;5012170;28;20529;-42
2022/04/24 10:06:16;;;;;;;6.50;3.13;;;17.30;61.10;;;;;;5006971;28;20050;-43
2022/04/24 10:08:42;;;;;;;5.07;2.85;;;17.30;61.10;;;;;;5006693;28;20042;-43
2022/04/24 10:11:10;;;;;;;5.88;3.45;;;17.50;61.40;;;;;;5012821;28;20050;-43
2022/04/24 10:13:39;;;;;;;5.85;2.95;;;17.60;61.10;;;;;;5011552;28;20355;-43
2022/04/24 10:16:15;;;;;;;5.70;3.30;;;17.70;60.00;;;;;;5000754;28;20049;-43
2022/04/24 10:18:48;;;;;;;7.38;3.10;;;17.80;60.00;;;;;;5003699;28;20042;-43
2022/04/24 10:21:31;;;;;;;7.13;2.90;;;17.90;60.30;;;;;;5002654;28;20042;-43
2022/04/24 10:24:07;;;;;;;6.90;3.13;;;17.90;58.00;;;;;;5005500;28;20089;-43
2022/04/24 10:26:37;;;;;;;6.25;2.80;;;17.60;58.10;;;;;;5004996;28;20050;-43
2022/04/24 10:29:05;;;;;;;6.75;2.80;;;17.40;59.30;;;;;;5004590;28;20046;-43
2022/04/24 10:31:42;;;;;;;4.97;2.88;;;17.50;59.60;;;;;;5011561;28;20378;-43
2022/04/24 10:34:08;;;;;;;4.47;2.80;;;17.70;60.80;;;;;;5007590;28;20049;-43
2022/04/24 10:36:35;;;;;;;7.03;2.60;;;17.70;59.20;;;;;;5007116;28;20493;-43
2022/04/24 10:39:04;;;;;;;3.80;2.60;;;17.80;58.80;;;;;;5009894;28;20076;-43
2022/04/24 10:41:31;;;;;;;6.80;2.78;;;17.90;58.40;;;;;;5004253;28;20038;-42
2022/04/24 10:44:08;;;;;;;3.45;2.40;;;18.10;57.90;;;;;;5005721;28;20061;-41
2022/04/24 10:46:39;;;;;;;4.57;2.58;;;18.10;56.60;;;;;;5001954;28;20050;-43
2022/04/24 10:49:09;;;;;;;6.43;2.20;;;18.20;55.80;;;;;;5007180;28;20050;-43
2022/04/24 10:51:36;;;;;;;5.05;2.50;;;18.20;56.30;;;;;;5003528;28;20043;-43
2022/04/24 10:54:03;;;;;;;3.17;2.30;;;18.10;55.50;;;;;;5005417;28;20065;-43
2022/04/24 10:56:31;;;;;;;7.43;2.78;;;18.00;55.80;;;;;;5009455;28;20064;-43
2022/04/24 10:59:08;;;;;;;4.45;2.40;;;18.10;56.00;;;;;;5012012;28;20375;-42
2022/04/24 11:01:35;;;;;;;8.77;2.83;;;18.20;54.40;;;;;;5007190;28;20050;-43
2022/04/24 11:04:05;;;;;;;6.53;2.20;;;18.30;55.30;;;;;;4996090;28;20046;-43
2022/04/24 11:06:31;;;;;;;5.88;2.00;;;18.40;55.40;;;;;;5013757;28;20084;-43
2022/04/24 11:09:06;;;;;;;7.40;2.25;;;18.50;55.00;;;;;;5009876;28;20478;-43
2022/04/24 11:11:34;;;;;;;6.70;2.53;;;18.60;53.80;;;;;;4999473;28;20046;-43
2022/04/24 11:14:01;;;;;;;3.45;2.30;;;18.70;54.50;;;;;;5002487;28;20041;-43
2022/04/24 11:16:29;;;;;;;4.78;1.90;;;18.70;53.50;;;;;;5013267;28;20051;-43
2022/04/24 11:18:56;;;;;;;10.10;2.40;;;18.70;53.80;;;;;;5010227;28;20057;-43
2022/04/24 11:21:23;;;;;;;4.72;2.60;;;18.70;53.30;;;;;;4999889;28;20038;-42
2022/04/24 11:23:52;;;;;;;4.65;2.25;;;18.60;53.00;;;;;;5010899;28;20048;-43
2022/04/24 11:26:18;;;;;;;5.28;2.08;;;18.50;52.80;;;;;;5001519;28;20045;-44
2022/04/24 11:28:46;;;;;;;4.07;1.98;;;18.40;52.00;;;;;;4993895;28;20056;-41
2022/04/24 11:31:15;;;;;;;5.35;2.17;;;18.50;52.30;;;;;;4999572;28;20041;-43
2022/04/24 11:33:54;;;;;;;3.83;2.38;;;18.70;52.00;;;;;;4993591;28;20042;-43
2022/04/24 11:36:21;;;;;;;4.43;2.45;;;18.80;50.00;;;;;;5011897;28;20491;-42
2022/04/24 11:38:48;;;;;;;3.17;2.28;;;18.70;51.00;;;;;;5015694;28;20140;-43
2022/04/24 11:41:15;;;;;;;4.50;2.03;;;18.50;51.50;;;;;;5013243;28;20048;-43
2022/04/24 11:43:42;;;;;;;6.05;2.40;;;18.70;51.60;;;;;;5011803;28;20054;-43
2022/04/24 11:51:39;;;;;;;6.00;2.60;;;18.60;53.30;;;;;;5012866;28;20386;-43
2022/04/24 11:54:06;;;;;;;5.85;2.67;;;18.70;53.60;;;;;;4998309;28;20433;-43
2022/04/24 11:56:33;;;;;;;11.07;3.13;;;18.50;53.40;;;;;;5008374;28;20046;-43
2022/04/24 11:59:11;;;;;;;3.25;2.42;;;18.20;53.20;;;;;;5011657;28;20053;-42
2022/04/24 12:01:38;;;;;;;4.63;2.53;;;17.90;53.10;;;;;;5000085;28;20057;-42
2022/04/24 12:04:06;;;;;;;3.95;2.20;;;17.70;53.90;;;;;;5001989;28;20077;-43
2022/04/24 12:06:33;;;;;;;3.95;2.55;;;17.70;54.50;;;;;;5003207;28;20372;-42
2022/04/24 12:09:06;;;;;;;5.00;2.00;;;17.70;53.60;;;;;;5004372;28;20152;-41
2022/04/24 12:11:35;;;;;;;3.97;2.17;;;17.60;53.50;;;;;;5011538;28;20116;-43
2022/04/24 12:14:02;;;;;;;5.10;2.28;;;17.60;54.40;;;;;;5011111;28;20069;-42
2022/04/24 12:16:28;;;;;;;4.63;2.30;;;17.70;54.40;;;;;;5003561;28;20046;-42
2022/04/24 12:18:56;;;;;;;3.78;1.92;;;18.00;54.20;;;;;;5011614;28;20045;-43
2022/04/24 12:21:24;;;;;;;6.97;2.25;;;18.20;52.60;;;;;;5010701;28;20049;-43
2022/04/24 12:23:51;;;;;;;3.55;2.28;;;18.30;52.50;;;;;;5004271;28;20077;-42
2022/04/24 12:26:18;;;;;;;2.92;1.80;;;18.10;52.50;;;;;;5011415;28;20076;-43
2022/04/24 12:28:44;;;;;;;3.25;2.30;;;18.10;52.90;;;;;;5014216;28;20076;-42
2022/04/24 12:31:21;;;;;;;4.78;2.10;;;18.20;53.00;;;;;;5015560;28;20040;-43
2022/04/24 12:33:48;;;;;;;3.45;2.42;;;18.00;53.60;;;;;;5007142;28;20399;-42
2022/04/24 12:36:15;;;;;;;7.40;2.40;;;17.80;53.70;;;;;;5005965;28;20042;-43
2022/04/24 12:38:54;;;;;;;4.20;2.65;;;17.60;54.40;;;;;;5011741;28;20047;-42
2022/04/24 12:41:22;;;;;;;5.47;2.85;;;17.50;54.90;;;;;;5004973;28;20390;-42
2022/04/24 12:43:49;;;;;;;3.42;2.47;;;17.40;55.00;;;;;;5011102;28;20133;-42
2022/04/24 12:46:16;;;;;;;4.65;2.70;;;17.30;55.10;;;;;;5018660;28;20124;-42
2022/04/24 12:48:49;;;;;;;3.88;2.85;;;17.30;55.90;;;;;;5010150;28;20058;-42
2022/04/24 12:51:15;;;;;;;4.75;2.80;;;17.30;56.10;;;;;;5016780;28;20050;-43
2022/04/24 12:53:43;;;;;;;5.85;2.83;;;17.60;56.00;;;;;;5016015;28;20048;-43